バルセロナ の空港の天気 - METARとTAF

バルセロナ・エル・プラット国際空港 ( LEBL / BCN ) - スペイン バルセロナ
飛行場実況気象(Metar)
観測時間09/25 23:00 CEST (09/25 21:00 UTC)
風向・風速東北東 3m/s
視程10km以上
天気現象
全天の4割程度の雲 雲底高度 1310m
全天の4割程度の雲 雲底高度 1680m
気温20℃
湿度60%
気圧1013hPa
METARLEBL 252100Z 07006KT 030V100 9999 SCT043 SCT055 20/12 Q1013 NOSIG
過去の天気等 Google飛行場航空写真 Wunderground天気予報

過去48時間のMETAR

飛行場予報(TAF)
発表時間: 9/25 19:00 CEST (9/25 17:00 UTC)
予報対象時間: 25日20時 CEST ~ 26日20時 CEST
風向・風速南東 3m/s
視程10km以上
少しの雲 雲底高度 610m
25日21時 CEST ~ 25日24時 CEST に徐々に
風向・風速北 5m/s
26日10時 CEST ~ 26日13時 CEST に徐々に
風向・風速南南西 6m/s
26日17時 CEST ~ 26日19時 CEST に徐々に
風向・風速西 5m/s
TAF LEBL 251700Z 2518/2618 13006KT 9999 FEW020 TX26/2612Z TN16/2605Z
BECMG 2519/2522 35010KT
BECMG 2608/2611 21012KT
BECMG 2615/2617 27010KT